createdAt,value
2023-02-14T00:00:50.283Z,22.43
2023-02-14T00:03:17.055Z,22.73
2023-02-14T00:05:43.684Z,21.10
2023-02-14T00:08:10.233Z,23.47
2023-02-14T00:10:36.921Z,22.47
2023-02-14T00:13:04.302Z,22.17
2023-02-14T00:15:30.892Z,23.60
2023-02-14T00:17:59.891Z,23.13
2023-02-14T00:20:27.759Z,23.27
2023-02-14T00:22:54.607Z,22.33
2023-02-14T00:25:21.321Z,23.27
2023-02-14T00:27:47.939Z,22.70
2023-02-14T00:30:14.905Z,23.27
2023-02-14T00:32:42.575Z,23.97
2023-02-14T00:35:10.448Z,24.07
2023-02-14T00:37:37.709Z,23.37
2023-02-14T00:40:05.941Z,23.00
2023-02-14T00:42:32.486Z,22.93
2023-02-14T00:44:59.024Z,23.30
2023-02-14T00:47:25.658Z,24.17
2023-02-14T00:49:52.246Z,23.00
2023-02-14T00:52:18.885Z,23.73
2023-02-14T00:54:45.460Z,21.90
2023-02-14T00:57:12.245Z,21.60
2023-02-14T00:59:38.839Z,30.60
2023-02-14T01:02:05.494Z,24.00
2023-02-14T01:04:32.179Z,24.83
2023-02-14T01:06:58.747Z,23.50
2023-02-14T01:09:25.686Z,23.53
2023-02-14T01:11:52.340Z,23.30
2023-02-14T01:14:18.993Z,23.50
2023-02-14T01:16:45.641Z,22.97
2023-02-14T01:19:12.289Z,22.97
2023-02-14T01:21:38.892Z,21.30
2023-02-14T01:24:07.403Z,23.10
2023-02-14T01:26:34.489Z,22.63
2023-02-14T01:29:01.193Z,24.33
2023-02-14T01:31:30.394Z,22.10
2023-02-14T01:33:59.010Z,30.27
2023-02-14T01:36:39.919Z,25.47
2023-02-14T01:39:12.605Z,25.30
2023-02-14T01:41:41.632Z,24.63
2023-02-14T01:44:14.068Z,23.73
2023-02-14T01:46:42.082Z,25.30
2023-02-14T01:49:23.410Z,23.83
2023-02-14T01:51:56.999Z,23.67
2023-02-14T01:54:26.840Z,23.83
2023-02-14T01:57:00.151Z,24.53
2023-02-14T01:59:31.653Z,24.23
2023-02-14T02:01:59.195Z,24.90
2023-02-14T02:04:32.648Z,26.17
2023-02-14T02:07:03.601Z,25.33
2023-02-14T02:09:39.014Z,25.20
2023-02-14T02:12:05.614Z,25.90
2023-02-14T02:14:32.929Z,35.30
2023-02-14T02:17:23.372Z,29.10
2023-02-14T02:20:18.099Z,24.97
2023-02-14T02:22:57.127Z,25.00
2023-02-14T02:25:35.755Z,26.03
2023-02-14T02:28:16.697Z,26.33
2023-02-14T02:30:46.424Z,24.07
2023-02-14T02:33:31.774Z,25.80
2023-02-14T02:36:17.150Z,25.30
2023-02-14T02:39:10.431Z,24.20
2023-02-14T02:42:03.513Z,25.30
2023-02-14T02:44:58.689Z,25.13
2023-02-14T02:47:32.129Z,24.80
2023-02-14T02:50:35.935Z,25.77
2023-02-14T02:53:15.480Z,25.33
2023-02-14T02:56:14.986Z,24.60
2023-02-14T02:59:18.136Z,24.90
2023-02-14T03:01:52.213Z,25.20
2023-02-14T03:04:38.998Z,25.57
2023-02-14T03:07:26.286Z,24.90
2023-02-14T03:09:58.677Z,25.43
2023-02-14T03:12:34.274Z,26.63
2023-02-14T03:15:36.382Z,27.33
2023-02-14T03:18:54.684Z,25.73
2023-02-14T03:21:39.917Z,25.80
2023-02-14T03:24:33.219Z,25.90
2023-02-14T03:27:06.812Z,29.60
2023-02-14T03:29:59.667Z,28.67
2023-02-14T03:32:53.380Z,27.37
2023-02-14T03:35:51.117Z,26.97
2023-02-14T03:38:25.737Z,28.23
2023-02-14T03:40:58.739Z,26.73
2023-02-14T03:43:33.598Z,25.90
2023-02-14T03:46:16.274Z,28.00
2023-02-14T03:48:44.645Z,27.97
2023-02-14T03:51:13.908Z,27.17
2023-02-14T03:53:45.841Z,26.70
2023-02-14T03:56:46.776Z,26.67
2023-02-14T03:59:17.523Z,25.73
2023-02-14T04:01:50.297Z,27.00
2023-02-14T04:04:20.679Z,27.93
2023-02-14T04:06:47.377Z,27.00
2023-02-14T04:09:14.220Z,28.00
2023-02-14T04:11:41.216Z,27.53
2023-02-14T04:14:07.858Z,28.27
2023-02-14T04:16:55.232Z,27.63
2023-02-14T04:19:24.543Z,28.33
2023-02-14T04:21:52.329Z,28.00
2023-02-14T04:24:20.030Z,29.50
2023-02-14T04:27:12.108Z,29.03
2023-02-14T04:29:47.986Z,27.23
2023-02-14T04:32:17.847Z,28.50
2023-02-14T04:34:45.212Z,28.33
2023-02-14T04:37:12.618Z,28.23
2023-02-14T04:39:39.323Z,28.17
2023-02-14T04:42:06.657Z,39.78
2023-02-14T04:44:38.182Z,31.83
2023-02-14T04:47:05.825Z,30.23
2023-02-14T04:49:32.804Z,29.17
2023-02-14T04:52:00.075Z,27.60
2023-02-14T04:54:26.752Z,28.30
2023-02-14T04:56:53.340Z,29.30
2023-02-14T04:59:19.917Z,29.50
2023-02-14T05:01:46.615Z,29.40
2023-02-14T05:04:13.291Z,28.60
2023-02-14T05:06:39.988Z,29.33
2023-02-14T05:09:06.826Z,29.57
2023-02-14T05:11:33.438Z,30.30
2023-02-14T05:14:00.045Z,27.83
2023-02-14T05:16:26.768Z,37.65
2023-02-14T05:18:53.420Z,30.27
2023-02-14T05:21:20.037Z,30.33
2023-02-14T05:23:46.679Z,28.37
2023-02-14T05:26:13.267Z,27.80
2023-02-14T05:28:41.019Z,28.67
2023-02-14T05:31:08.886Z,29.17
2023-02-14T05:33:36.195Z,27.20
2023-02-14T05:36:02.953Z,29.97
2023-02-14T05:38:30.540Z,29.00
2023-02-14T05:40:57.407Z,28.13
2023-02-14T05:43:24.106Z,29.30
2023-02-14T05:45:50.728Z,27.80
2023-02-14T05:48:18.312Z,27.97
2023-02-14T05:50:45.514Z,29.27
2023-02-14T05:53:13.736Z,26.30
2023-02-14T05:55:40.544Z,29.07
2023-02-14T05:58:07.586Z,29.00
2023-02-14T06:00:34.504Z,29.83
2023-02-14T06:03:01.345Z,29.17
2023-02-14T06:05:28.235Z,28.73
2023-02-14T06:07:54.836Z,30.93
2023-02-14T06:10:23.347Z,30.10
2023-02-14T06:12:51.451Z,30.50
2023-02-14T06:15:18.221Z,29.80
2023-02-14T06:17:47.492Z,29.20
2023-02-14T06:20:14.146Z,31.17
2023-02-14T06:22:40.689Z,30.37
2023-02-14T06:25:07.429Z,30.90
2023-02-14T06:27:33.990Z,28.60
2023-02-14T06:30:00.681Z,31.57
2023-02-14T06:32:27.292Z,28.60
2023-02-14T06:34:53.863Z,29.30
2023-02-14T06:37:20.518Z,30.07
2023-02-14T06:39:47.275Z,29.27
2023-02-14T06:42:13.988Z,29.13
2023-02-14T06:44:40.794Z,29.83
2023-02-14T06:47:08.472Z,28.07
2023-02-14T06:49:35.140Z,30.40
2023-02-14T06:52:01.966Z,31.53
2023-02-14T06:54:28.510Z,29.37
2023-02-14T06:56:55.070Z,30.47
2023-02-14T06:59:21.790Z,31.83
2023-02-14T07:01:48.451Z,30.33
2023-02-14T07:04:15.119Z,31.27
2023-02-14T07:06:41.741Z,31.77
2023-02-14T07:09:08.340Z,30.13
2023-02-14T07:11:34.953Z,29.90
2023-02-14T07:14:01.499Z,29.43
2023-02-14T07:16:28.163Z,30.00
2023-02-14T07:18:54.778Z,30.93
2023-02-14T07:21:21.381Z,34.43
2023-02-14T07:23:49.937Z,30.73
2023-02-14T07:26:18.049Z,29.80
2023-02-14T07:28:51.728Z,29.07
2023-02-14T07:31:19.980Z,30.17
2023-02-14T07:33:46.601Z,29.10
2023-02-14T07:36:13.261Z,28.37
2023-02-14T07:38:39.850Z,29.10
2023-02-14T07:41:06.628Z,26.60
2023-02-14T07:43:34.374Z,28.95
2023-02-14T07:46:02.454Z,26.33
2023-02-14T07:48:31.424Z,25.63
2023-02-14T07:51:00.195Z,25.57
2023-02-14T07:53:27.046Z,25.83
2023-02-14T07:55:53.733Z,25.43
2023-02-14T07:58:20.443Z,26.40
2023-02-14T08:00:47.028Z,26.97
2023-02-14T08:03:14.239Z,29.23
2023-02-14T08:05:41.318Z,27.10
2023-02-14T08:08:08.091Z,25.77
2023-02-14T08:10:34.790Z,26.03
2023-02-14T08:13:01.496Z,24.87
2023-02-14T08:15:53.897Z,25.43
2023-02-14T08:18:23.088Z,25.30
2023-02-14T08:20:50.017Z,25.70
2023-02-14T08:23:18.184Z,31.40
2023-02-14T08:25:44.874Z,27.60
2023-02-14T08:28:13.636Z,25.33
2023-02-14T08:30:40.967Z,24.87
2023-02-14T08:33:07.915Z,25.47
2023-02-14T08:35:35.579Z,23.77
2023-02-14T08:38:02.766Z,23.67
2023-02-14T08:40:29.423Z,23.97
2023-02-14T08:42:56.064Z,24.33
2023-02-14T08:45:22.734Z,23.90
2023-02-14T08:47:49.310Z,24.23
2023-02-14T08:50:17.508Z,23.90
2023-02-14T08:52:44.504Z,25.17
2023-02-14T08:55:12.905Z,22.77
2023-02-14T08:57:39.981Z,24.17
2023-02-14T09:00:07.679Z,25.27
2023-02-14T09:02:34.460Z,24.30
2023-02-14T09:05:01.209Z,23.93
2023-02-14T09:07:27.834Z,23.20
2023-02-14T09:09:54.415Z,23.40
2023-02-14T09:12:21.049Z,24.43
2023-02-14T09:14:47.596Z,22.33
2023-02-14T09:17:15.161Z,22.63
2023-02-14T09:19:42.473Z,24.07
2023-02-14T09:22:11.226Z,22.23
2023-02-14T09:24:39.174Z,23.63
2023-02-14T09:27:06.441Z,23.03
2023-02-14T09:29:33.664Z,23.37
2023-02-14T09:32:01.422Z,21.23
2023-02-14T09:34:29.295Z,21.83
2023-02-14T09:37:14.508Z,25.17
2023-02-14T09:39:41.171Z,22.90
2023-02-14T09:42:36.992Z,22.40
2023-02-14T09:45:13.519Z,21.83
2023-02-14T09:47:50.425Z,21.33
2023-02-14T09:50:34.460Z,21.03
2023-02-14T09:53:06.482Z,21.47
2023-02-14T09:55:47.270Z,21.00
2023-02-14T09:58:22.888Z,19.90
2023-02-14T10:01:13.988Z,20.03
2023-02-14T10:03:58.240Z,21.77
2023-02-14T10:06:45.506Z,21.20
2023-02-14T10:09:31.243Z,21.60
2023-02-14T10:12:01.345Z,24.90
2023-02-14T10:14:31.854Z,22.27
2023-02-14T10:17:06.958Z,22.07
2023-02-14T10:19:43.136Z,21.00
2023-02-14T10:22:20.877Z,20.63
2023-02-14T10:25:04.637Z,21.30
2023-02-14T10:27:44.606Z,19.47
2023-02-14T10:30:21.132Z,20.40
2023-02-14T10:33:05.041Z,20.23
2023-02-14T10:35:48.078Z,21.63
2023-02-14T10:38:23.488Z,20.77
2023-02-14T10:41:28.467Z,20.47
2023-02-14T10:44:08.648Z,21.00
2023-02-14T10:46:53.828Z,20.50
2023-02-14T10:49:29.485Z,20.73
2023-02-14T10:52:15.330Z,19.07
2023-02-14T10:54:45.926Z,20.20
2023-02-14T10:57:25.436Z,20.83
2023-02-14T11:00:05.066Z,19.80
2023-02-14T11:02:36.812Z,18.77
2023-02-14T11:05:05.471Z,19.63
2023-02-14T11:07:32.489Z,18.10
2023-02-14T11:09:59.061Z,17.97
2023-02-14T11:12:40.813Z,18.67
2023-02-14T11:15:35.532Z,19.27
2023-02-14T11:18:24.583Z,17.97
2023-02-14T11:21:05.282Z,18.67
2023-02-14T11:23:35.795Z,17.87
2023-02-14T11:26:05.306Z,21.20
2023-02-14T11:28:32.160Z,17.93
2023-02-14T11:30:59.267Z,18.63
2023-02-14T11:33:29.615Z,17.43
2023-02-14T11:35:57.746Z,17.07
2023-02-14T11:38:35.708Z,18.23
2023-02-14T11:41:03.349Z,17.70
2023-02-14T11:43:43.939Z,17.57
2023-02-14T11:46:52.760Z,17.50
2023-02-14T11:49:32.745Z,16.40
2023-02-14T11:52:10.325Z,17.07
2023-02-14T11:54:40.110Z,16.87
2023-02-14T11:57:12.175Z,16.93
2023-02-14T11:59:45.613Z,17.53
2023-02-14T12:02:38.239Z,17.67
2023-02-14T12:05:22.848Z,19.40
2023-02-14T12:07:52.937Z,17.10
2023-02-14T12:10:22.102Z,16.53
2023-02-14T12:12:55.127Z,17.27
2023-02-14T12:15:36.347Z,16.97
2023-02-14T12:18:40.296Z,16.87
2023-02-14T12:21:30.621Z,17.33
2023-02-14T12:24:13.965Z,16.97
2023-02-14T12:26:49.674Z,17.67
2023-02-14T12:29:33.635Z,17.33
2023-02-14T12:32:05.727Z,18.10
2023-02-14T12:34:33.741Z,17.67
2023-02-14T12:37:19.163Z,17.37
2023-02-14T12:40:10.621Z,17.30
2023-02-14T12:42:50.669Z,18.33
2023-02-14T12:45:52.187Z,16.90
2023-02-14T12:48:40.054Z,17.00
2023-02-14T12:51:34.497Z,16.97
2023-02-14T12:54:22.019Z,18.63
2023-02-14T12:57:01.584Z,17.30
2023-02-14T13:00:00.115Z,17.50
2023-02-14T13:02:52.652Z,15.40
2023-02-14T13:05:34.355Z,17.00
2023-02-14T13:08:25.514Z,17.83
2023-02-14T13:11:25.425Z,18.10
2023-02-14T13:14:12.896Z,18.03
2023-02-14T13:16:56.623Z,18.53
2023-02-14T13:19:46.210Z,19.73
2023-02-14T13:22:20.379Z,19.00
2023-02-14T13:24:50.607Z,18.40
2023-02-14T13:27:27.771Z,18.93
2023-02-14T13:30:11.996Z,19.53
2023-02-14T13:32:42.052Z,18.60
2023-02-14T13:35:16.424Z,20.60
2023-02-14T13:37:50.046Z,18.63
2023-02-14T13:40:21.746Z,18.87
2023-02-14T13:42:48.669Z,19.73
2023-02-14T13:45:34.857Z,19.67
2023-02-14T13:48:16.097Z,18.57
2023-02-14T13:51:09.902Z,19.93
2023-02-14T13:53:38.147Z,22.58
2023-02-14T13:56:16.356Z,21.73
2023-02-14T13:58:54.466Z,20.60
2023-02-14T14:01:35.658Z,20.13
2023-02-14T14:04:06.165Z,21.13
2023-02-14T14:07:00.875Z,20.50
2023-02-14T14:09:55.113Z,20.30
2023-02-14T14:12:27.524Z,20.27
2023-02-14T14:15:09.266Z,20.90
2023-02-14T14:18:09.150Z,21.20
2023-02-14T14:20:43.456Z,20.70
2023-02-14T14:23:32.340Z,20.50
2023-02-14T14:26:01.780Z,20.07
2023-02-14T14:28:31.820Z,20.03
2023-02-14T14:30:59.255Z,21.30
2023-02-14T14:33:30.243Z,20.33
2023-02-14T14:36:00.639Z,20.00
2023-02-14T14:38:28.617Z,19.50
2023-02-14T14:40:55.849Z,20.47
2023-02-14T14:43:33.692Z,18.93
2023-02-14T14:46:02.618Z,20.50
2023-02-14T14:48:38.908Z,19.80
2023-02-14T14:51:24.001Z,20.57
2023-02-14T14:53:52.130Z,19.00
2023-02-14T14:56:23.972Z,19.43
2023-02-14T14:58:51.656Z,19.70
2023-02-14T15:01:37.889Z,19.13
2023-02-14T15:04:17.044Z,20.00
2023-02-14T15:06:43.847Z,21.20
2023-02-14T15:09:24.150Z,19.40
2023-02-14T15:12:11.644Z,19.47
2023-02-14T15:14:44.445Z,20.03
2023-02-14T15:17:27.644Z,19.07
2023-02-14T15:20:03.805Z,20.40
2023-02-14T15:22:41.382Z,18.63
2023-02-14T15:25:12.347Z,19.67
2023-02-14T15:27:42.664Z,21.43
2023-02-14T15:30:23.558Z,20.43
2023-02-14T15:32:51.465Z,19.60
2023-02-14T15:35:24.269Z,18.97
2023-02-14T15:37:52.581Z,19.43
2023-02-14T15:40:25.678Z,18.97
2023-02-14T15:42:56.508Z,19.50
2023-02-14T15:45:30.657Z,20.50
2023-02-14T15:47:59.781Z,20.90
2023-02-14T15:50:31.232Z,19.93
2023-02-14T15:53:24.640Z,22.33
2023-02-14T15:55:51.849Z,20.40
2023-02-14T15:58:29.035Z,20.07
2023-02-14T16:00:56.043Z,21.73
2023-02-14T16:03:26.251Z,21.13
2023-02-14T16:05:54.621Z,20.33
2023-02-14T16:08:41.657Z,21.50
2023-02-14T16:11:27.648Z,20.73
2023-02-14T16:13:54.369Z,19.87
2023-02-14T16:16:21.582Z,20.63
2023-02-14T16:18:55.166Z,21.47
2023-02-14T16:21:27.612Z,22.20
2023-02-14T16:24:06.733Z,22.03
2023-02-14T16:26:35.846Z,20.67
2023-02-14T16:29:03.920Z,23.37
2023-02-14T16:31:32.055Z,22.60
2023-02-14T16:33:58.668Z,21.80
2023-02-14T16:36:30.572Z,22.13
2023-02-14T16:38:58.692Z,23.27
2023-02-14T16:41:28.602Z,21.83
2023-02-14T16:43:56.293Z,22.57
2023-02-14T16:46:26.225Z,21.53
2023-02-14T16:48:53.188Z,24.03
2023-02-14T16:51:22.309Z,24.90
2023-02-14T16:53:49.702Z,23.67
2023-02-14T16:56:23.676Z,28.63
2023-02-14T16:58:50.256Z,28.67
2023-02-14T17:01:17.069Z,36.20
2023-02-14T17:03:44.559Z,30.30
2023-02-14T17:06:18.951Z,27.47
2023-02-14T17:08:47.395Z,25.33
2023-02-14T17:11:14.192Z,23.67
2023-02-14T17:13:42.301Z,24.73
2023-02-14T17:16:11.722Z,21.93
2023-02-14T17:18:41.454Z,22.80
2023-02-14T17:21:08.105Z,24.30
2023-02-14T17:23:34.834Z,22.67
2023-02-14T17:26:01.460Z,22.60
2023-02-14T17:28:28.022Z,21.93
2023-02-14T17:30:54.769Z,21.57
2023-02-14T17:33:22.138Z,21.67
2023-02-14T17:35:49.243Z,24.10
2023-02-14T17:38:15.803Z,22.93
2023-02-14T17:40:42.519Z,24.27
2023-02-14T17:43:09.076Z,25.47
2023-02-14T17:45:35.943Z,24.33
2023-02-14T17:48:02.620Z,24.07
2023-02-14T17:50:29.455Z,24.30
2023-02-14T17:52:56.780Z,24.90
2023-02-14T17:55:24.064Z,25.43
2023-02-14T17:57:52.610Z,25.53
2023-02-14T18:00:23.753Z,25.47
2023-02-14T18:02:50.767Z,27.40
2023-02-14T18:05:17.508Z,26.50
2023-02-14T18:07:44.186Z,26.67
2023-02-14T18:10:12.150Z,28.57
2023-02-14T18:12:38.714Z,29.30
2023-02-14T18:15:05.904Z,28.07
2023-02-14T18:17:32.491Z,25.70
2023-02-14T18:19:59.239Z,24.97
2023-02-14T18:22:28.230Z,24.43
2023-02-14T18:24:58.454Z,24.97
2023-02-14T18:27:26.008Z,24.43
2023-02-14T18:29:52.619Z,25.33
2023-02-14T18:32:19.221Z,25.47
2023-02-14T18:34:45.833Z,25.17
2023-02-14T18:37:13.696Z,26.83
2023-02-14T18:39:40.305Z,27.17
2023-02-14T18:42:06.873Z,27.13
2023-02-14T18:44:33.581Z,27.00
2023-02-14T18:47:01.357Z,26.63
2023-02-14T18:49:28.346Z,28.33
2023-02-14T18:51:56.753Z,26.33
2023-02-14T18:54:23.622Z,27.57
2023-02-14T18:56:50.675Z,28.33
2023-02-14T18:59:17.399Z,28.40
2023-02-14T19:01:45.682Z,28.03
2023-02-14T19:04:12.790Z,27.93
2023-02-14T19:06:41.485Z,27.30
2023-02-14T19:09:13.502Z,28.57
2023-02-14T19:11:40.556Z,26.73
2023-02-14T19:14:10.063Z,27.27
2023-02-14T19:16:41.916Z,27.40
2023-02-14T19:19:08.704Z,29.90
2023-02-14T19:21:35.575Z,31.27
2023-02-14T19:24:06.692Z,34.00
2023-02-14T19:26:39.850Z,32.20
2023-02-14T19:29:09.789Z,31.20
2023-02-14T19:31:38.229Z,28.73
2023-02-14T19:34:06.905Z,28.70
2023-02-14T19:36:36.317Z,28.17
2023-02-14T19:39:03.482Z,29.00
2023-02-14T19:41:31.807Z,29.20
2023-02-14T19:43:59.243Z,28.13
2023-02-14T19:46:27.980Z,27.90
2023-02-14T19:48:56.670Z,29.53
2023-02-14T19:51:25.853Z,30.03
2023-02-14T19:53:53.993Z,30.50
2023-02-14T19:56:22.768Z,31.00
2023-02-14T19:58:51.224Z,31.10
2023-02-14T20:01:31.700Z,32.03
2023-02-14T20:03:58.301Z,35.95
2023-02-14T20:06:26.528Z,33.67
2023-02-14T20:08:53.163Z,33.87
2023-02-14T20:11:52.248Z,35.87
2023-02-14T20:14:35.974Z,35.63
2023-02-14T20:17:07.798Z,32.70
2023-02-14T20:19:36.924Z,30.30
2023-02-14T20:22:04.456Z,29.90
2023-02-14T20:24:32.144Z,29.93
2023-02-14T20:27:00.430Z,29.37
2023-02-14T20:29:27.539Z,29.50
2023-02-14T20:31:58.074Z,28.40
2023-02-14T20:34:24.937Z,30.20
2023-02-14T20:36:55.957Z,31.17
2023-02-14T20:39:28.442Z,29.10
2023-02-14T20:41:54.993Z,32.23
2023-02-14T20:44:21.867Z,31.10
2023-02-14T20:46:51.389Z,32.30
2023-02-14T20:49:18.366Z,34.60
2023-02-14T20:51:46.422Z,33.47
2023-02-14T20:54:14.437Z,32.67
2023-02-14T20:56:41.690Z,34.40
2023-02-14T20:59:11.260Z,31.97
2023-02-14T21:01:38.980Z,34.60
2023-02-14T21:04:06.096Z,32.60
2023-02-14T21:06:35.486Z,31.33
2023-02-14T21:09:03.157Z,35.30
2023-02-14T21:11:29.765Z,36.23
2023-02-14T21:13:59.717Z,35.47
2023-02-14T21:16:27.419Z,35.70
2023-02-14T21:18:58.849Z,45.45
2023-02-14T21:21:34.819Z,37.63
2023-02-14T21:24:07.198Z,38.60
2023-02-14T21:26:34.145Z,37.93
2023-02-14T21:29:01.594Z,37.20
2023-02-14T21:31:28.339Z,36.50
2023-02-14T21:34:00.442Z,36.97
2023-02-14T21:36:30.174Z,33.57
2023-02-14T21:38:58.296Z,36.43
2023-02-14T21:41:27.850Z,35.30
2023-02-14T21:43:58.945Z,33.60
2023-02-14T21:46:31.070Z,34.73
2023-02-14T21:49:18.291Z,36.00
2023-02-14T21:51:45.150Z,33.13
2023-02-14T21:54:12.135Z,34.80
2023-02-14T21:56:39.804Z,33.40
2023-02-14T21:59:06.739Z,32.67
2023-02-14T22:01:35.810Z,33.10
2023-02-14T22:04:07.877Z,35.17
2023-02-14T22:06:37.151Z,32.63
2023-02-14T22:09:04.138Z,32.53
2023-02-14T22:11:32.653Z,34.10
2023-02-14T22:14:00.213Z,32.50
2023-02-14T22:16:27.192Z,33.83
2023-02-14T22:18:53.897Z,33.83
2023-02-14T22:21:25.548Z,34.00
2023-02-14T22:23:53.295Z,33.03
2023-02-14T22:26:23.268Z,34.27
2023-02-14T22:28:50.843Z,34.67
2023-02-14T22:31:18.665Z,33.73
2023-02-14T22:33:46.535Z,46.17
2023-02-14T22:36:13.379Z,36.33
2023-02-14T22:38:40.437Z,34.30
2023-02-14T22:41:08.532Z,32.47
2023-02-14T22:43:36.264Z,31.53
2023-02-14T22:46:07.676Z,33.80
2023-02-14T22:48:35.686Z,35.83
2023-02-14T22:51:18.245Z,35.90
2023-02-14T22:53:44.915Z,32.83
2023-02-14T22:56:12.767Z,32.67
2023-02-14T22:58:39.408Z,37.30
2023-02-14T23:01:06.761Z,38.23
2023-02-14T23:03:33.432Z,35.57
2023-02-14T23:06:00.753Z,36.63
2023-02-14T23:08:27.600Z,33.73
2023-02-14T23:10:54.191Z,39.50
2023-02-14T23:13:39.301Z,33.83
2023-02-14T23:16:24.808Z,34.53
2023-02-14T23:19:09.973Z,36.67
2023-02-14T23:21:55.276Z,34.20
2023-02-14T23:24:23.192Z,33.60
2023-02-14T23:26:50.382Z,33.97
2023-02-14T23:29:17.334Z,36.00
2023-02-14T23:31:44.178Z,38.17
2023-02-14T23:34:11.534Z,39.77
2023-02-14T23:36:38.269Z,38.23
2023-02-14T23:39:04.960Z,37.73
2023-02-14T23:41:49.912Z,38.50
2023-02-14T23:44:19.537Z,37.33
2023-02-14T23:46:47.465Z,52.53
2023-02-14T23:49:15.266Z,40.87
2023-02-14T23:51:43.139Z,38.10
2023-02-14T23:54:09.740Z,37.03
2023-02-14T23:56:37.252Z,37.07
2023-02-14T23:59:05.984Z,35.87
